UAII Airport Information

Runway Information
Runway 10 Length 9186 ft width 144 ft
Elevation 1319 ft Threshold 0 ft Heading 107
Runway 28 Length 9186 ft Width 144 ft
Elevation 1385 ft Threshold 0 ft Heading 287
Airport Frequencies
Type TWR Name TWR Frequency 118.7 MHZ
Airport Navaids
Type NDB Name Shymkent Frequency 360 KHZ
Type NDB Name Shymkent Frequency 360 KHZ
Airport Weather Information & NOTAM
ADDS - METARS form results

(1948 UTC 22 July 2018)
 
METAR text: UAII 221930Z 12002MPS 090V150 CAVOK 31/08 Q0998 R28/0///70 NOSIG RMK QFE712/0949
Conditions at: UAII (CIMKENT , KZ) observed 1930 UTC 22 July 2018
Temperature: 31.0°C (88°F)
Dewpoint: 8.0°C (46°F) [RH = 24%]
Pressure (altimeter): 29.47 inches Hg (998.0 mb)
Winds: from the ESE (120 degrees) at 5 MPH (4 knots; 2.1 m/s)
Visibility: 6 or more miles (10+ km)
Ceiling: ceiling and visibility are OK
Clouds: unknown
Weather: no significant weather observed at this time

METAR text: UAII 221900Z 14002MPS CAVOK 30/09 Q0998 R28/0///70 NOSIG RMK QFE712/0949
Conditions at: UAII (CIMKENT , KZ) observed 1900 UTC 22 July 2018
Temperature: 30.0°C (86°F)
Dewpoint: 9.0°C (48°F) [RH = 27%]
Pressure (altimeter): 29.47 inches Hg (998.0 mb)
Winds: from the SE (140 degrees) at 5 MPH (4 knots; 2.1 m/s)
Visibility: 6 or more miles (10+ km)
Ceiling: ceiling and visibility are OK
Clouds: unknown
Weather: no significant weather observed at this time